createdAt,value
2022-08-28T00:02:55.274Z,18.80
2022-08-28T00:06:57.316Z,18.94
2022-08-28T00:10:59.757Z,18.77
2022-08-28T00:15:02.022Z,18.78
2022-08-28T00:19:04.429Z,18.59
2022-08-28T00:23:07.147Z,18.58
2022-08-28T00:27:26.993Z,18.36
2022-08-28T00:31:29.592Z,18.60
2022-08-28T00:35:31.202Z,18.52
2022-08-28T00:39:33.039Z,18.53
2022-08-28T00:43:43.111Z,18.73
2022-08-28T00:47:44.999Z,18.50
2022-08-28T00:52:08.077Z,18.54
2022-08-28T00:56:13.291Z,18.39
2022-08-28T01:00:24.966Z,18.35
2022-08-28T01:04:32.227Z,18.41
2022-08-28T01:08:36.881Z,18.43
2022-08-28T01:12:39.095Z,18.14
2022-08-28T01:16:42.911Z,18.49
2022-08-28T01:20:56.710Z,18.14
2022-08-28T01:25:02.036Z,18.24
2022-08-28T01:29:04.577Z,18.15
2022-08-28T01:33:06.280Z,18.23
2022-08-28T01:37:07.777Z,18.15
2022-08-28T01:41:11.088Z,18.07
2022-08-28T01:45:15.164Z,18.32
2022-08-28T01:49:17.202Z,18.27
2022-08-28T01:53:24.876Z,18.29
2022-08-28T01:57:26.744Z,18.32
2022-08-28T02:01:28.254Z,18.46
2022-08-28T02:05:32.968Z,18.62
2022-08-28T02:09:35.599Z,18.34
2022-08-28T02:13:38.300Z,18.25
2022-08-28T02:17:39.779Z,18.19
2022-08-28T02:21:41.322Z,17.79
2022-08-28T02:25:42.795Z,18.27
2022-08-28T02:29:44.317Z,18.02
2022-08-28T02:33:45.941Z,17.79
2022-08-28T02:37:48.084Z,17.69
2022-08-28T02:41:50.289Z,17.49
2022-08-28T02:45:51.838Z,17.59
2022-08-28T02:49:53.396Z,17.65
2022-08-28T02:53:54.932Z,17.52
2022-08-28T02:57:56.427Z,17.28
2022-08-28T03:01:57.857Z,17.75
2022-08-28T03:06:00.757Z,17.39
2022-08-28T03:10:02.365Z,17.74
2022-08-28T03:14:04.809Z,17.42
2022-08-28T03:18:08.170Z,17.62
2022-08-28T03:22:13.025Z,17.43
2022-08-28T03:26:17.963Z,17.55
2022-08-28T03:30:21.184Z,17.48
2022-08-28T03:34:22.827Z,17.71
2022-08-28T03:38:25.381Z,17.45
2022-08-28T03:42:27.821Z,17.10
2022-08-28T03:46:33.969Z,16.91
2022-08-28T03:50:35.702Z,17.06
2022-08-28T03:54:37.340Z,17.07
2022-08-28T03:58:42.229Z,17.00
2022-08-28T04:02:44.201Z,16.94
2022-08-28T04:06:45.694Z,16.94
2022-08-28T04:10:48.415Z,17.11
2022-08-28T04:14:49.927Z,16.75
2022-08-28T04:18:51.445Z,16.83
2022-08-28T04:22:55.208Z,16.85
2022-08-28T04:26:56.975Z,16.79
2022-08-28T04:30:58.555Z,16.75
2022-08-28T04:35:00.146Z,16.76
2022-08-28T04:39:02.969Z,16.65
2022-08-28T04:43:04.422Z,16.72
2022-08-28T04:47:06.319Z,16.50
2022-08-28T04:51:10.591Z,16.78
2022-08-28T04:55:12.204Z,16.76
2022-08-28T04:59:13.980Z,16.81
2022-08-28T05:03:17.574Z,16.66
2022-08-28T05:07:19.014Z,16.44
2022-08-28T05:11:34.287Z,16.72
2022-08-28T05:15:44.576Z,16.60
2022-08-28T05:19:48.103Z,16.50
2022-08-28T05:23:51.277Z,16.36
2022-08-28T05:27:52.756Z,16.27
2022-08-28T05:31:54.434Z,16.46
2022-08-28T05:35:55.904Z,16.42
2022-08-28T05:39:57.458Z,16.59
2022-08-28T05:44:01.508Z,16.61
2022-08-28T05:48:03.242Z,16.18
2022-08-28T05:52:04.751Z,16.32
2022-08-28T05:56:06.461Z,16.17
2022-08-28T06:00:13.628Z,16.07
2022-08-28T06:04:19.033Z,16.19
2022-08-28T06:08:21.780Z,16.05
2022-08-28T06:12:23.612Z,16.11
2022-08-28T06:16:25.164Z,16.17
2022-08-28T06:20:26.644Z,16.47
2022-08-28T06:24:29.432Z,16.24
2022-08-28T06:28:32.908Z,16.23
2022-08-28T06:32:34.464Z,15.92
2022-08-28T06:36:39.459Z,16.42
2022-08-28T06:40:47.138Z,16.40
2022-08-28T06:44:48.772Z,16.67
2022-08-28T06:48:50.979Z,16.59
2022-08-28T06:52:52.450Z,16.64
2022-08-28T06:56:54.104Z,16.62
2022-08-28T07:01:10.595Z,16.51
2022-08-28T07:05:14.576Z,16.27
2022-08-28T07:09:16.200Z,16.56
2022-08-28T07:13:17.826Z,16.80
2022-08-28T07:17:19.448Z,17.01
2022-08-28T07:21:21.090Z,16.42
2022-08-28T07:25:22.531Z,16.83
2022-08-28T07:29:24.010Z,16.82
2022-08-28T07:33:30.375Z,17.01
2022-08-28T07:37:31.875Z,17.48
2022-08-28T07:41:40.223Z,17.34
2022-08-28T07:45:43.009Z,16.91
2022-08-28T07:49:47.062Z,16.86
2022-08-28T07:53:48.533Z,17.04
2022-08-28T07:57:50.089Z,17.12
2022-08-28T08:01:53.650Z,17.11
2022-08-28T08:06:02.179Z,17.22
2022-08-28T08:10:03.955Z,17.18
2022-08-28T08:14:06.156Z,17.41
2022-08-28T08:18:07.690Z,17.37
2022-08-28T08:22:09.300Z,17.65
2022-08-28T08:26:14.534Z,17.34
2022-08-28T08:30:16.141Z,18.26
2022-08-28T08:34:17.623Z,18.42
2022-08-28T08:38:19.171Z,18.49
2022-08-28T08:42:29.699Z,17.72
2022-08-28T08:46:35.612Z,17.19
2022-08-28T08:50:37.516Z,17.67
2022-08-28T08:54:44.178Z,17.45
2022-08-28T08:58:51.166Z,18.22
2022-08-28T09:03:37.118Z,17.84
2022-08-28T09:07:53.284Z,17.20
2022-08-28T09:11:57.192Z,17.50
2022-08-28T09:16:01.716Z,17.74
2022-08-28T09:20:05.488Z,17.22
2022-08-28T09:24:21.301Z,17.47
2022-08-28T09:28:27.511Z,17.68
2022-08-28T09:32:35.910Z,18.58
2022-08-28T09:36:38.618Z,17.78
2022-08-28T09:40:58.485Z,18.64
2022-08-28T09:45:21.388Z,19.13
2022-08-28T09:49:30.219Z,18.34
2022-08-28T09:53:38.462Z,18.00
2022-08-28T09:57:45.635Z,17.98
2022-08-28T10:01:51.534Z,18.70
2022-08-28T10:06:02.097Z,19.54
2022-08-28T10:10:48.002Z,18.92
2022-08-28T10:15:03.260Z,18.56
2022-08-28T10:19:28.182Z,17.76
2022-08-28T10:23:40.638Z,17.51
2022-08-28T10:27:45.095Z,17.80
2022-08-28T10:32:15.429Z,17.38
2022-08-28T10:36:34.267Z,17.54
2022-08-28T10:40:41.801Z,17.78
2022-08-28T10:44:55.885Z,17.65
2022-08-28T10:49:06.235Z,17.52
2022-08-28T10:53:13.872Z,17.64
2022-08-28T10:57:39.557Z,17.98
2022-08-28T11:01:43.303Z,18.16
2022-08-28T11:06:01.721Z,18.25
2022-08-28T11:10:23.987Z,17.89
2022-08-28T11:14:30.026Z,17.64
2022-08-28T11:18:44.833Z,17.31
2022-08-28T11:22:48.897Z,17.39
2022-08-28T11:27:23.306Z,17.83
2022-08-28T11:31:29.011Z,17.35
2022-08-28T11:35:30.637Z,17.63
2022-08-28T11:39:32.297Z,17.40
2022-08-28T11:43:35.401Z,17.59
2022-08-28T11:47:39.137Z,17.10
2022-08-28T11:51:57.593Z,17.04
2022-08-28T11:56:31.157Z,17.41
2022-08-28T12:00:48.315Z,17.48
2022-08-28T12:04:50.455Z,17.66
2022-08-28T12:08:57.990Z,17.69
2022-08-28T12:13:04.927Z,17.90
2022-08-28T12:17:21.619Z,17.51
2022-08-28T12:21:27.128Z,17.38
2022-08-28T12:25:38.176Z,17.64
2022-08-28T12:29:48.390Z,17.72
2022-08-28T12:34:04.370Z,17.84
2022-08-28T12:38:09.346Z,18.38
2022-08-28T12:42:18.726Z,18.53
2022-08-28T12:46:28.786Z,17.76
2022-08-28T12:50:32.487Z,18.31
2022-08-28T12:54:35.272Z,18.36
2022-08-28T12:58:39.641Z,18.73
2022-08-28T13:02:41.422Z,18.91
2022-08-28T13:06:43.211Z,19.24
2022-08-28T13:10:49.399Z,19.55
2022-08-28T13:14:52.342Z,19.87
2022-08-28T13:19:06.173Z,19.60
2022-08-28T13:23:07.747Z,19.90
2022-08-28T13:27:23.527Z,20.35
2022-08-28T13:31:33.357Z,20.91
2022-08-28T13:35:40.292Z,20.95
2022-08-28T13:39:41.759Z,21.69
2022-08-28T13:43:46.017Z,22.23
2022-08-28T13:47:47.535Z,21.60
2022-08-28T13:51:50.302Z,22.81
2022-08-28T13:55:52.789Z,23.17
2022-08-28T13:59:55.788Z,23.26
2022-08-28T14:03:57.470Z,23.58
2022-08-28T14:07:59.353Z,23.39
2022-08-28T14:12:01.323Z,23.58
2022-08-28T14:16:07.898Z,21.61
2022-08-28T14:20:09.910Z,23.74
2022-08-28T14:24:12.267Z,23.39
2022-08-28T14:28:14.348Z,21.82
2022-08-28T14:32:16.132Z,22.77
2022-08-28T14:36:23.646Z,23.53
2022-08-28T14:40:25.303Z,24.26
2022-08-28T14:44:26.816Z,23.75
2022-08-28T14:48:28.282Z,24.06
2022-08-28T14:52:29.776Z,24.16
2022-08-28T14:56:32.495Z,22.11
2022-08-28T15:00:39.352Z,22.27
2022-08-28T15:04:40.903Z,22.81
2022-08-28T15:08:42.401Z,23.68
2022-08-28T15:12:43.823Z,23.54
2022-08-28T15:16:47.829Z,22.62
2022-08-28T15:20:49.353Z,23.03
2022-08-28T15:24:52.602Z,22.57
2022-08-28T15:29:02.336Z,22.50
2022-08-28T15:33:04.211Z,21.76
2022-08-28T15:37:07.856Z,22.42
2022-08-28T15:41:35.482Z,21.74
2022-08-28T15:45:39.178Z,22.43
2022-08-28T15:49:46.852Z,22.62
2022-08-28T15:53:51.674Z,22.43
2022-08-28T15:57:55.039Z,22.67
2022-08-28T16:01:56.580Z,22.25
2022-08-28T16:05:58.969Z,22.82
2022-08-28T16:10:02.940Z,22.58
2022-08-28T16:14:04.687Z,22.06
2022-08-28T16:18:08.974Z,21.92
2022-08-28T16:22:11.512Z,22.71
2022-08-28T16:26:15.727Z,22.38
2022-08-28T16:30:17.583Z,22.57
2022-08-28T16:34:20.290Z,22.65
2022-08-28T16:38:22.172Z,23.09
2022-08-28T16:42:24.438Z,23.69
2022-08-28T16:46:26.654Z,23.09
2022-08-28T16:50:31.668Z,22.94
2022-08-28T16:54:33.161Z,22.14
2022-08-28T16:58:34.624Z,22.68
2022-08-28T17:02:36.192Z,23.08
2022-08-28T17:06:37.820Z,22.99
2022-08-28T17:10:39.424Z,23.08
2022-08-28T17:14:40.878Z,22.45
2022-08-28T17:18:48.171Z,22.81
2022-08-28T17:22:53.796Z,23.30
2022-08-28T17:26:55.256Z,22.73
2022-08-28T17:30:57.276Z,21.93
2022-08-28T17:34:58.869Z,22.08
2022-08-28T17:39:02.012Z,21.52
2022-08-28T17:43:03.632Z,21.58
2022-08-28T17:47:05.835Z,21.41
2022-08-28T17:51:07.623Z,21.20
2022-08-28T17:55:09.151Z,21.06
2022-08-28T17:59:12.148Z,20.83
2022-08-28T18:03:15.276Z,20.54
2022-08-28T18:07:16.774Z,20.13
2022-08-28T18:11:19.145Z,20.14
2022-08-28T18:15:20.838Z,20.11
2022-08-28T18:19:23.915Z,20.08
2022-08-28T18:23:25.520Z,19.80
2022-08-28T18:27:28.619Z,19.95
2022-08-28T18:31:30.264Z,19.56
2022-08-28T18:35:32.382Z,19.22
2022-08-28T18:39:35.888Z,19.43
2022-08-28T18:43:37.598Z,18.76
2022-08-28T18:47:39.898Z,18.64
2022-08-28T18:51:43.517Z,18.68
2022-08-28T18:55:45.793Z,18.56
2022-08-28T18:59:48.127Z,18.60
2022-08-28T19:03:50.334Z,18.78
2022-08-28T19:07:51.945Z,18.61
2022-08-28T19:11:54.174Z,18.55
2022-08-28T19:15:55.638Z,18.59
2022-08-28T19:19:57.382Z,18.68
2022-08-28T19:23:58.851Z,18.45
2022-08-28T19:28:01.820Z,18.32
2022-08-28T19:32:04.532Z,18.41
2022-08-28T19:36:06.582Z,18.32
2022-08-28T19:40:09.765Z,18.21
2022-08-28T19:44:11.384Z,18.19
2022-08-28T19:48:13.067Z,18.09
2022-08-28T19:52:14.679Z,18.13
2022-08-28T19:56:16.166Z,17.89
2022-08-28T20:00:20.998Z,17.95
2022-08-28T20:04:22.651Z,17.72
2022-08-28T20:08:26.924Z,17.47
2022-08-28T20:12:28.523Z,17.48
2022-08-28T20:16:30.540Z,17.44
2022-08-28T20:20:32.017Z,17.32
2022-08-28T20:24:33.583Z,17.19
2022-08-28T20:28:36.185Z,17.39
2022-08-28T20:32:40.808Z,17.39
2022-08-28T20:36:43.139Z,17.17
2022-08-28T20:40:44.657Z,17.26
2022-08-28T20:44:46.141Z,17.19
2022-08-28T20:48:47.627Z,17.10
2022-08-28T20:52:49.104Z,17.14
2022-08-28T20:56:52.101Z,17.07
2022-08-28T21:00:59.391Z,16.92
2022-08-28T21:05:01.607Z,16.68
2022-08-28T21:09:03.208Z,16.72
2022-08-28T21:13:05.841Z,16.63
2022-08-28T21:17:10.264Z,16.45
2022-08-28T21:21:12.545Z,16.55
2022-08-28T21:25:18.081Z,16.53
2022-08-28T21:29:22.770Z,16.63
2022-08-28T21:33:24.691Z,16.39
2022-08-28T21:37:26.642Z,16.46
2022-08-28T21:41:28.220Z,15.94
2022-08-28T21:45:29.668Z,15.74
2022-08-28T21:49:31.228Z,15.88
2022-08-28T21:53:32.970Z,15.53
2022-08-28T21:57:35.098Z,15.53
2022-08-28T22:01:37.104Z,15.64
2022-08-28T22:05:41.406Z,15.73
2022-08-28T22:09:42.977Z,15.77
2022-08-28T22:13:44.643Z,15.45
2022-08-28T22:17:46.080Z,15.59
2022-08-28T22:22:06.013Z,15.44
2022-08-28T22:26:12.024Z,15.24
2022-08-28T22:30:13.733Z,15.51
2022-08-28T22:34:15.218Z,15.36
2022-08-28T22:38:16.791Z,15.24
2022-08-28T22:42:18.341Z,15.12
2022-08-28T22:46:21.677Z,15.28
2022-08-28T22:50:23.268Z,15.04
2022-08-28T22:54:24.831Z,15.14
2022-08-28T22:58:31.404Z,15.00
2022-08-28T23:02:33.037Z,14.77
2022-08-28T23:06:34.742Z,14.84
2022-08-28T23:10:58.087Z,14.77
2022-08-28T23:14:57.875Z,14.68
2022-08-28T23:19:08.993Z,14.38
2022-08-28T23:23:11.375Z,14.40
2022-08-28T23:27:34.773Z,14.44
2022-08-28T23:31:34.787Z,14.23
2022-08-28T23:35:36.771Z,13.98
2022-08-28T23:39:38.262Z,14.02
2022-08-28T23:43:39.723Z,13.77
2022-08-28T23:47:44.978Z,13.88
2022-08-28T23:51:46.453Z,13.84
2022-08-28T23:55:49.037Z,13.86
2022-08-28T23:59:50.605Z,13.77
